Time;durP1;ratioP1;P1;durP2;ratioP2;P2;SDS_P1;SDS_P2;PMS_P1;PMS_P2;Temp;Humidity;BMP_temperature;BMP_pressure;BME280_temperature;BME280_humidity;BME280_pressure;Samples;Min_cycle;Max_cycle;Signal;HPM_P1;HPM_P2
2022/11/11 00:00:14;;;;;;;2.85;1.80;;;16.90;67.30;;;;;;5052645;28;20175;-68
2022/11/11 00:02:40;;;;;;;2.60;2.10;;;16.90;67.30;;;;;;5052069;28;20669;-68
2022/11/11 00:05:05;;;;;;;3.00;1.90;;;16.80;67.10;;;;;;5052580;28;20210;-68
2022/11/11 00:07:31;;;;;;;4.20;2.08;;;16.80;67.10;;;;;;5052124;28;20203;-68
2022/11/11 00:09:56;;;;;;;3.20;1.95;;;16.80;67.00;;;;;;5051417;28;20630;-68
2022/11/11 00:12:22;;;;;;;2.50;2.15;;;16.80;67.00;;;;;;5052245;28;20213;-68
2022/11/11 00:14:47;;;;;;;2.90;1.80;;;16.80;67.00;;;;;;5052458;28;20228;-68
2022/11/11 00:25:35;;;;;;;3.55;2.40;;;16.80;67.00;;;;;;5052835;28;20338;-67
2022/11/11 00:28:01;;;;;;;3.15;2.30;;;16.80;67.30;;;;;;5052997;28;20286;-67
2022/11/11 00:30:26;;;;;;;3.03;2.65;;;16.70;67.00;;;;;;5051926;28;20171;-68
2022/11/11 00:32:52;;;;;;;4.28;2.22;;;16.70;66.90;;;;;;5053014;28;20223;-68
2022/11/11 00:38:08;;;;;;;2.30;1.75;;;16.70;67.80;;;;;;5051598;28;20182;-68
2022/11/11 00:40:34;;;;;;;2.78;1.80;;;16.70;67.00;;;;;;5052304;28;20266;-67
2022/11/11 00:42:59;;;;;;;2.45;2.13;;;16.70;67.00;;;;;;5052245;28;20202;-67
2022/11/11 00:45:25;;;;;;;2.80;2.10;;;16.70;66.90;;;;;;5051570;28;20182;-67
2022/11/11 00:53:20;;;;;;;2.30;2.10;;;16.70;66.90;;;;;;5052107;28;20664;-67
2022/11/11 00:55:45;;;;;;;2.58;2.30;;;16.70;66.90;;;;;;5051695;28;20186;-67
2022/11/11 00:58:11;;;;;;;3.35;2.22;;;16.70;66.80;;;;;;5051526;28;20175;-67
2022/11/11 01:00:36;;;;;;;2.72;2.10;;;16.60;66.80;;;;;;5051706;28;20171;-68
2022/11/11 01:03:02;;;;;;;2.10;1.90;;;16.70;66.90;;;;;;5052053;28;20265;-67
2022/11/11 01:05:28;;;;;;;2.45;2.17;;;16.60;66.80;;;;;;5051316;28;20182;-68
2022/11/11 01:07:54;;;;;;;2.05;1.80;;;16.60;66.80;;;;;;5052190;28;20175;-68
2022/11/11 01:10:40;;;;;;;2.53;2.10;;;16.60;66.70;;;;;;5051851;28;20219;-67
2022/11/11 01:13:19;;;;;;;2.55;2.35;;;16.60;66.80;;;;;;5051337;28;20341;-68
2022/11/11 01:15:46;;;;;;;3.38;2.50;;;16.60;66.70;;;;;;5051781;28;20250;-67
2022/11/11 01:18:14;;;;;;;3.15;2.30;;;16.60;66.70;;;;;;5051908;28;20645;-68
2022/11/11 01:20:40;;;;;;;2.47;2.28;;;16.60;66.70;;;;;;5051024;28;20224;-68
2022/11/11 01:23:06;;;;;;;3.78;2.20;;;16.60;66.70;;;;;;5052126;28;20178;-67
2022/11/11 01:25:33;;;;;;;2.95;2.50;;;16.60;66.70;;;;;;5050711;28;20203;-67
2022/11/11 01:27:59;;;;;;;2.42;2.22;;;16.60;66.80;;;;;;5051880;28;20187;-67
2022/11/11 01:30:24;;;;;;;3.05;2.58;;;16.60;66.70;;;;;;5051782;28;20622;-67
2022/11/11 01:32:50;;;;;;;3.97;2.63;;;16.60;66.70;;;;;;5050673;28;20215;-67
2022/11/11 01:35:15;;;;;;;3.88;2.72;;;16.60;66.70;;;;;;5051899;28;20225;-68
2022/11/11 01:37:41;;;;;;;3.30;2.67;;;16.60;66.70;;;;;;5051585;28;20175;-68
2022/11/11 01:40:07;;;;;;;3.88;2.30;;;16.60;66.70;;;;;;5051012;28;20198;-67
2022/11/11 01:43:05;;;;;;;3.40;2.50;;;16.60;66.60;;;;;;5054307;28;20186;-67
2022/11/11 01:45:46;;;;;;;3.03;2.45;;;16.60;66.70;;;;;;5054956;28;20237;-67
2022/11/11 01:51:35;;;;;;;2.58;2.38;;;16.60;66.70;;;;;;5054452;28;20210;-67
2022/11/11 01:54:03;;;;;;;2.80;2.60;;;16.50;66.60;;;;;;5053492;28;20248;-68
2022/11/11 01:56:28;;;;;;;3.53;2.58;;;16.60;66.60;;;;;;5037354;28;20179;-68
2022/11/11 01:58:56;;;;;;;2.83;2.30;;;16.50;66.60;;;;;;5055261;28;20175;-67
2022/11/11 02:01:22;;;;;;;2.40;2.20;;;16.60;66.70;;;;;;5037022;28;20196;-67
2022/11/11 02:06:31;;;;;;;3.20;2.25;;;16.50;66.60;;;;;;5053915;28;20182;-68
2022/11/11 02:08:57;;;;;;;4.65;2.83;;;16.50;66.70;;;;;;5036514;28;20175;-67
2022/11/11 02:16:51;;;;;;;2.45;2.25;;;16.50;66.60;;;;;;5052924;28;20178;-67
2022/11/11 02:19:17;;;;;;;2.50;2.30;;;16.50;66.60;;;;;;5053691;28;20199;-68
2022/11/11 02:21:51;;;;;;;4.82;2.65;;;16.50;66.50;;;;;;5053830;28;20179;-67
2022/11/11 02:24:17;;;;;;;2.60;2.40;;;16.50;66.60;;;;;;5037247;28;20209;-67
2022/11/11 02:26:43;;;;;;;2.63;2.40;;;16.50;66.60;;;;;;5053329;28;20199;-67
2022/11/11 02:29:12;;;;;;;3.58;2.50;;;16.50;66.60;;;;;;5052265;28;20642;-67
2022/11/11 02:31:38;;;;;;;3.03;2.63;;;16.50;66.60;;;;;;5036775;28;20214;-68
2022/11/11 02:34:03;;;;;;;3.05;2.42;;;16.50;66.60;;;;;;5036787;28;20178;-68
2022/11/11 02:36:29;;;;;;;4.13;2.58;;;16.50;66.60;;;;;;5053496;28;20271;-68
2022/11/11 02:38:54;;;;;;;2.53;2.28;;;16.50;66.60;;;;;;5054374;28;20262;-68
2022/11/11 02:44:04;;;;;;;2.97;2.60;;;16.50;66.60;;;;;;5053637;28;20213;-67
2022/11/11 02:46:29;;;;;;;4.18;2.33;;;16.50;66.60;;;;;;5054239;28;20171;-67
2022/11/11 02:48:55;;;;;;;2.53;2.30;;;16.50;66.60;;;;;;5054238;28;20168;-67
2022/11/11 02:51:20;;;;;;;5.45;2.55;;;16.50;66.60;;;;;;5053550;28;20195;-67
2022/11/11 02:53:46;;;;;;;2.70;2.50;;;16.50;66.60;;;;;;5053445;28;20179;-67
2022/11/11 02:57:05;;;;;;;2.97;2.70;;;16.50;66.60;;;;;;5054249;28;20163;-67
2022/11/11 02:58:57;;;;;;;3.63;3.00;;;16.50;66.60;;;;;;5053366;28;20179;-67
2022/11/11 03:01:23;;;;;;;3.03;2.60;;;16.40;66.60;;;;;;5053912;28;20548;-68
2022/11/11 03:03:48;;;;;;;3.08;2.72;;;16.50;66.60;;;;;;5053400;28;20183;-68
2022/11/11 03:06:14;;;;;;;2.90;2.60;;;16.50;66.60;;;;;;5053427;28;20577;-68
2022/11/11 03:08:39;;;;;;;2.88;2.58;;;16.50;66.60;;;;;;5053697;28;20623;-68
2022/11/11 03:11:05;;;;;;;3.28;2.47;;;16.40;66.50;;;;;;5052741;28;20227;-68
2022/11/11 03:13:30;;;;;;;2.88;2.55;;;16.40;66.60;;;;;;5053616;28;20175;-68
2022/11/11 03:15:56;;;;;;;2.85;2.65;;;16.40;66.60;;;;;;5054040;28;20202;-67
2022/11/11 03:18:21;;;;;;;3.33;2.60;;;16.50;66.60;;;;;;5053127;28;20179;-68
2022/11/11 03:21:05;;;;;;;3.17;2.88;;;16.40;66.60;;;;;;5053273;28;20221;-68
2022/11/11 03:23:31;;;;;;;2.95;2.63;;;16.50;66.60;;;;;;5053387;28;20276;-67
2022/11/11 03:25:56;;;;;;;2.92;2.50;;;16.40;66.60;;;;;;5052942;28;20686;-67
2022/11/11 03:28:23;;;;;;;3.20;2.78;;;16.40;66.60;;;;;;5053766;28;20183;-67
2022/11/11 03:30:49;;;;;;;2.78;2.45;;;16.40;66.50;;;;;;5053111;28;20211;-67
2022/11/11 03:33:15;;;;;;;3.15;2.85;;;16.40;66.60;;;;;;5052959;28;20236;-68
2022/11/11 03:35:41;;;;;;;2.85;2.58;;;16.40;66.50;;;;;;5053189;28;20175;-68
2022/11/11 03:38:23;;;;;;;3.35;2.95;;;16.40;66.60;;;;;;5053269;28;20585;-68
2022/11/11 03:40:51;;;;;;;3.28;2.90;;;16.40;66.60;;;;;;5052312;28;20175;-67
2022/11/11 03:43:17;;;;;;;3.00;2.65;;;16.40;66.70;;;;;;5053325;28;20255;-67
2022/11/11 03:45:43;;;;;;;3.05;2.75;;;16.40;66.60;;;;;;5053020;28;20175;-67
2022/11/11 03:48:08;;;;;;;2.50;2.30;;;16.40;66.60;;;;;;5052461;28;20201;-67
2022/11/11 03:50:34;;;;;;;2.88;2.60;;;16.40;66.60;;;;;;5052942;28;20179;-67
2022/11/11 03:52:59;;;;;;;2.92;2.58;;;16.40;66.70;;;;;;5053167;28;20301;-67
2022/11/11 03:55:25;;;;;;;2.70;2.47;;;16.40;66.60;;;;;;5052400;28;20535;-68
2022/11/11 03:57:51;;;;;;;3.65;2.55;;;16.40;66.60;;;;;;5052655;28;20642;-67
2022/11/11 04:00:19;;;;;;;3.30;2.53;;;16.40;66.60;;;;;;5052342;28;20174;-68
2022/11/11 04:10:59;;;;;;;2.78;2.10;;;16.40;66.60;;;;;;5051999;28;20233;-67
2022/11/11 04:16:10;;;;;;;3.13;2.55;;;16.40;66.60;;;;;;5050238;28;20174;-69
2022/11/11 04:21:42;;;;;;;2.80;2.45;;;16.40;66.70;;;;;;5041724;28;20198;-68
2022/11/11 04:27:00;;;;;;;3.20;2.90;;;16.40;66.70;;;;;;5052668;28;20182;-67
2022/11/11 04:29:29;;;;;;;2.72;2.53;;;16.40;66.70;;;;;;5051964;28;20175;-68
2022/11/11 04:34:40;;;;;;;3.97;2.70;;;16.30;66.60;;;;;;5052190;28;20233;-68
2022/11/11 04:37:06;;;;;;;3.05;2.75;;;16.30;66.60;;;;;;5051735;28;20175;-68
2022/11/11 04:42:16;;;;;;;2.70;2.30;;;16.30;66.70;;;;;;5052287;28;20189;-68
2022/11/11 04:47:25;;;;;;;2.67;2.47;;;16.30;66.70;;;;;;5052075;28;20190;-67
2022/11/11 04:49:51;;;;;;;3.50;2.67;;;16.30;66.70;;;;;;5051149;28;20171;-68
2022/11/11 04:52:25;;;;;;;3.00;2.67;;;16.30;66.70;;;;;;5052201;28;20293;-68
2022/11/11 04:57:45;;;;;;;3.33;2.55;;;16.30;66.70;;;;;;5051285;28;20177;-67
2022/11/11 05:00:13;;;;;;;2.35;2.15;;;16.30;66.70;;;;;;5051974;28;20179;-67
2022/11/11 05:05:23;;;;;;;3.03;2.67;;;16.30;66.70;;;;;;5051379;28;20183;-67
2022/11/11 05:10:33;;;;;;;4.60;2.60;;;16.30;66.70;;;;;;5050927;28;20225;-67
2022/11/11 05:21:22;;;;;;;2.72;2.50;;;16.30;66.70;;;;;;5055949;28;20558;-66
2022/11/11 05:26:32;;;;;;;3.35;2.90;;;16.30;66.70;;;;;;5055006;28;20545;-67
2022/11/11 05:28:58;;;;;;;2.67;2.47;;;16.30;66.70;;;;;;5055904;28;20697;-66
2022/11/11 05:31:23;;;;;;;2.88;2.67;;;16.30;66.80;;;;;;5055520;28;20677;-67
2022/11/11 05:33:49;;;;;;;2.67;2.47;;;16.30;66.80;;;;;;5054645;28;20202;-67
2022/11/11 05:36:14;;;;;;;2.80;2.60;;;16.30;66.80;;;;;;5055446;28;20179;-67
2022/11/11 05:38:40;;;;;;;2.85;2.22;;;16.30;66.70;;;;;;5054652;28;20206;-67
2022/11/11 05:41:06;;;;;;;2.47;2.28;;;16.20;66.70;;;;;;5055541;28;20171;-66
2022/11/11 05:43:31;;;;;;;3.90;2.70;;;16.30;66.80;;;;;;5055336;28;20189;-66
2022/11/11 05:45:57;;;;;;;3.08;2.67;;;16.20;66.70;;;;;;5054913;28;20179;-66
2022/11/11 05:48:22;;;;;;;3.85;2.67;;;16.20;66.70;;;;;;5055459;28;20179;-68
2022/11/11 05:50:48;;;;;;;2.78;2.35;;;16.30;66.70;;;;;;5054965;28;20185;-66
2022/11/11 05:53:13;;;;;;;3.85;2.65;;;16.20;66.70;;;;;;5054491;28;20214;-66
2022/11/11 05:55:39;;;;;;;3.10;2.42;;;16.20;66.70;;;;;;5054927;28;20182;-66
2022/11/11 05:58:04;;;;;;;2.65;2.45;;;16.20;66.70;;;;;;5055439;28;20183;-66
2022/11/11 06:00:30;;;;;;;3.17;2.33;;;16.20;66.70;;;;;;5054431;28;20213;-66
2022/11/11 06:03:04;;;;;;;3.05;2.75;;;16.20;66.70;;;;;;5055143;28;20259;-66
2022/11/11 06:05:30;;;;;;;2.78;2.53;;;16.20;66.70;;;;;;5055089;28;20179;-67
2022/11/11 06:07:59;;;;;;;3.08;2.78;;;16.30;66.80;;;;;;5054642;28;20182;-67
2022/11/11 06:10:30;;;;;;;2.75;2.22;;;16.20;66.70;;;;;;5054970;28;20227;-67
2022/11/11 06:13:09;;;;;;;2.22;2.08;;;16.20;66.70;;;;;;5055050;28;20214;-66
2022/11/11 06:15:37;;;;;;;4.53;2.83;;;16.20;66.70;;;;;;5053974;28;20189;-66
2022/11/11 06:18:03;;;;;;;5.75;2.75;;;16.20;66.70;;;;;;5055112;28;20179;-66
2022/11/11 06:20:29;;;;;;;2.97;2.67;;;16.20;66.70;;;;;;5053553;28;20236;-67
2022/11/11 06:22:57;;;;;;;3.67;2.58;;;16.20;66.70;;;;;;5054447;28;20199;-66
2022/11/11 06:28:14;;;;;;;3.13;2.67;;;16.10;66.60;;;;;;5053024;28;20262;-67
2022/11/11 06:30:40;;;;;;;3.30;2.45;;;16.20;67.60;;;;;;5054363;28;20262;-67
2022/11/11 06:33:08;;;;;;;2.78;2.58;;;16.20;66.70;;;;;;5054777;28;20218;-67
2022/11/11 06:35:37;;;;;;;4.35;2.78;;;16.20;66.70;;;;;;5053810;28;20270;-68
2022/11/11 06:38:03;;;;;;;3.40;2.75;;;16.20;66.70;;;;;;5054593;28;20175;-67
2022/11/11 06:40:29;;;;;;;3.25;2.72;;;16.20;66.70;;;;;;5054737;28;20177;-66
2022/11/11 06:42:58;;;;;;;3.00;2.50;;;16.20;66.70;;;;;;5054036;28;20179;-66
2022/11/11 06:45:24;;;;;;;3.08;2.75;;;16.20;66.70;;;;;;5054522;28;20604;-66
2022/11/11 06:47:50;;;;;;;3.28;2.60;;;16.20;66.70;;;;;;5054056;28;20210;-66
2022/11/11 06:50:16;;;;;;;2.80;2.60;;;16.20;66.70;;;;;;5053659;28;20207;-66
2022/11/11 06:52:41;;;;;;;2.83;2.50;;;16.20;66.70;;;;;;5053859;28;20214;-67
2022/11/11 06:55:07;;;;;;;2.58;2.38;;;16.20;66.80;;;;;;5053947;28;20175;-67
2022/11/11 06:57:33;;;;;;;2.83;2.63;;;16.20;66.70;;;;;;5053441;28;20703;-66
2022/11/11 06:59:58;;;;;;;3.60;2.70;;;16.20;66.80;;;;;;5054311;28;20175;-67
2022/11/11 07:02:24;;;;;;;3.05;2.80;;;16.20;66.70;;;;;;5054239;28;20385;-68
2022/11/11 07:04:49;;;;;;;3.47;2.65;;;16.20;66.70;;;;;;5053108;28;20305;-66
2022/11/11 07:07:16;;;;;;;3.92;3.10;;;16.20;67.40;;;;;;5054053;28;20265;-67
2022/11/11 07:09:42;;;;;;;5.10;2.92;;;16.20;68.20;;;;;;5053614;28;20178;-67
2022/11/11 07:12:07;;;;;;;3.10;2.80;;;16.20;67.10;;;;;;5052989;28;20230;-66
2022/11/11 07:14:33;;;;;;;3.92;2.60;;;16.30;66.60;;;;;;5053521;28;20175;-66
2022/11/11 07:16:58;;;;;;;2.80;2.50;;;16.50;66.40;;;;;;5053965;28;20634;-66
2022/11/11 07:19:24;;;;;;;4.43;2.60;;;16.50;66.20;;;;;;5053453;28;20185;-66
2022/11/11 07:21:49;;;;;;;3.10;2.83;;;16.60;65.90;;;;;;5053735;28;20182;-66
2022/11/11 07:24:15;;;;;;;3.15;2.85;;;16.70;66.60;;;;;;5053269;28;20254;-66
2022/11/11 07:26:41;;;;;;;2.75;2.53;;;16.90;65.60;;;;;;5053697;28;20222;-66
2022/11/11 07:29:06;;;;;;;3.13;2.53;;;17.00;65.40;;;;;;5053975;28;20627;-66
2022/11/11 07:31:32;;;;;;;2.78;2.55;;;17.10;65.10;;;;;;5052790;28;20206;-67
2022/11/11 07:33:57;;;;;;;2.60;2.40;;;17.20;65.00;;;;;;5052548;28;20175;-67
2022/11/11 07:36:23;;;;;;;2.50;2.28;;;17.30;64.60;;;;;;5053584;28;20220;-67
2022/11/11 07:38:48;;;;;;;2.67;2.20;;;17.40;64.40;;;;;;5052059;28;20586;-67
2022/11/11 07:41:14;;;;;;;4.68;2.60;;;17.60;63.90;;;;;;5053233;28;20711;-66
2022/11/11 07:43:39;;;;;;;2.38;2.10;;;17.80;63.40;;;;;;5052972;28;20171;-64
2022/11/11 07:46:05;;;;;;;2.50;2.30;;;18.00;62.80;;;;;;5052688;28;20171;-68
2022/11/11 07:48:30;;;;;;;2.67;2.45;;;18.00;62.50;;;;;;5053146;28;20309;-66
2022/11/11 07:50:56;;;;;;;5.32;2.60;;;18.20;62.30;;;;;;5053259;28;20238;-64
2022/11/11 07:53:22;;;;;;;4.28;2.55;;;18.30;62.20;;;;;;5052470;28;20681;-65
2022/11/11 07:55:47;;;;;;;3.97;2.40;;;18.30;62.20;;;;;;5053198;28;20175;-65
2022/11/11 07:58:13;;;;;;;2.92;2.70;;;18.30;62.20;;;;;;5053454;28;20186;-65
2022/11/11 08:00:38;;;;;;;3.28;2.53;;;18.30;62.20;;;;;;5052341;28;20167;-65
2022/11/11 08:03:06;;;;;;;4.93;2.65;;;18.20;62.00;;;;;;5053155;28;20183;-65
2022/11/11 08:05:31;;;;;;;3.80;2.67;;;18.10;62.10;;;;;;5052783;28;20190;-66
2022/11/11 08:08:02;;;;;;;2.75;2.55;;;18.10;62.10;;;;;;5052409;28;20167;-66
2022/11/11 08:10:28;;;;;;;3.85;3.03;;;18.10;62.00;;;;;;5052990;28;20289;-65
2022/11/11 08:15:37;;;;;;;5.28;3.10;;;18.20;62.00;;;;;;5052035;28;20178;-65
2022/11/11 08:18:03;;;;;;;2.88;2.63;;;18.10;62.00;;;;;;5053113;28;20179;-65
2022/11/11 08:20:28;;;;;;;4.03;2.92;;;18.10;62.00;;;;;;5051896;28;20525;-65
2022/11/11 08:22:56;;;;;;;5.22;3.08;;;18.10;61.80;;;;;;5052883;28;20548;-65
2022/11/11 08:25:22;;;;;;;2.70;2.50;;;18.10;61.90;;;;;;5053099;28;20175;-64
2022/11/11 08:27:47;;;;;;;3.22;2.92;;;18.00;62.00;;;;;;5051980;28;20955;-65
2022/11/11 08:30:13;;;;;;;2.95;2.50;;;18.00;62.10;;;;;;5052862;28;20179;-65
2022/11/11 08:32:39;;;;;;;4.20;2.72;;;18.00;62.30;;;;;;5052555;28;20585;-65
2022/11/11 08:35:05;;;;;;;4.25;2.92;;;18.00;62.40;;;;;;5051924;28;20262;-65
2022/11/11 08:37:30;;;;;;;3.38;2.60;;;18.00;62.40;;;;;;5052135;28;20190;-67
2022/11/11 08:39:56;;;;;;;3.20;2.90;;;18.00;63.20;;;;;;5052577;28;20178;-67
2022/11/11 08:42:22;;;;;;;3.25;2.78;;;18.00;62.30;;;;;;5052121;28;20189;-67
2022/11/11 08:44:47;;;;;;;2.55;2.33;;;18.00;62.50;;;;;;5052437;28;20526;-66
2022/11/11 08:47:13;;;;;;;2.80;2.50;;;17.90;62.50;;;;;;5052679;28;20170;-66
2022/11/11 08:49:38;;;;;;;2.80;2.30;;;17.90;62.60;;;;;;5051560;28;20293;-66
2022/11/11 08:52:04;;;;;;;3.47;2.83;;;17.90;62.70;;;;;;5055312;28;20583;-67
2022/11/11 08:54:29;;;;;;;3.90;2.65;;;17.90;62.70;;;;;;5056707;28;20171;-67
2022/11/11 08:56:55;;;;;;;4.78;2.78;;;17.90;62.70;;;;;;5056087;28;20644;-66
2022/11/11 08:59:20;;;;;;;2.80;2.50;;;17.90;62.60;;;;;;5056748;28;20178;-67
2022/11/11 09:01:46;;;;;;;3.53;2.60;;;18.00;62.70;;;;;;5056461;28;20178;-67
2022/11/11 09:04:11;;;;;;;4.07;2.65;;;17.90;62.80;;;;;;5056092;28;20178;-68
2022/11/11 09:06:38;;;;;;;2.88;2.58;;;17.80;62.70;;;;;;5056512;28;20175;-67
2022/11/11 09:09:04;;;;;;;3.22;2.17;;;17.80;62.90;;;;;;5056520;28;20552;-67
2022/11/11 09:11:35;;;;;;;2.70;2.50;;;17.80;63.00;;;;;;5055049;28;20215;-67
2022/11/11 09:14:01;;;;;;;3.28;2.45;;;17.80;63.00;;;;;;5056482;28;20187;-67
2022/11/11 09:16:26;;;;;;;3.17;2.38;;;17.90;62.90;;;;;;5056535;28;20182;-67
2022/11/11 09:18:52;;;;;;;2.97;2.70;;;17.90;62.90;;;;;;5055258;28;20183;-67
2022/11/11 09:21:17;;;;;;;2.85;2.45;;;17.90;62.90;;;;;;5056232;28;20509;-67
2022/11/11 09:23:43;;;;;;;2.38;2.17;;;17.90;63.00;;;;;;5055336;28;20656;-67
2022/11/11 09:26:08;;;;;;;2.97;2.40;;;17.80;63.00;;;;;;5056364;28;20197;-66
2022/11/11 09:28:34;;;;;;;2.80;2.33;;;17.80;63.10;;;;;;5055993;28;20209;-66
2022/11/11 09:31:00;;;;;;;2.60;2.38;;;17.80;63.10;;;;;;5055629;28;20198;-67
2022/11/11 09:33:25;;;;;;;3.90;2.50;;;17.90;63.20;;;;;;5055923;28;20242;-67
2022/11/11 09:35:51;;;;;;;2.35;2.20;;;17.90;63.30;;;;;;5055687;28;20179;-67
2022/11/11 09:38:16;;;;;;;2.72;2.53;;;17.90;63.20;;;;;;5055412;28;20182;-67
2022/11/11 09:40:50;;;;;;;3.03;2.17;;;17.90;63.30;;;;;;5055684;28;20181;-67
2022/11/11 09:43:54;;;;;;;3.80;2.55;;;17.90;63.30;;;;;;5054703;28;20167;-67
2022/11/11 09:46:42;;;;;;;2.45;2.20;;;17.80;63.30;;;;;;5055038;28;20197;-67
2022/11/11 09:49:46;;;;;;;3.00;2.08;;;17.80;63.30;;;;;;5054706;28;20174;-67
2022/11/11 09:52:21;;;;;;;2.00;1.80;;;17.90;63.50;;;;;;5046691;28;20221;-67
2022/11/11 09:54:52;;;;;;;2.22;1.92;;;17.90;63.50;;;;;;5055486;28;20197;-66
2022/11/11 09:57:25;;;;;;;3.03;2.08;;;17.90;63.40;;;;;;5055787;28;20269;-66
2022/11/11 09:59:51;;;;;;;2.70;2.00;;;17.90;63.40;;;;;;5053554;28;20183;-67
2022/11/11 10:02:24;;;;;;;3.20;2.33;;;17.90;63.40;;;;;;5037876;28;20260;-67
2022/11/11 10:05:10;;;;;;;2.05;1.95;;;17.90;63.40;;;;;;5055442;28;20163;-67
2022/11/11 10:08:00;;;;;;;3.00;2.25;;;17.90;63.50;;;;;;5053246;28;20183;-67
2022/11/11 10:10:38;;;;;;;2.00;1.80;;;17.80;63.60;;;;;;5054225;28;20231;-67
2022/11/11 10:13:11;;;;;;;4.03;2.35;;;17.80;63.50;;;;;;5053447;28;20210;-67
2022/11/11 10:15:41;;;;;;;2.08;1.95;;;17.80;63.90;;;;;;5054176;28;20250;-67
2022/11/11 10:18:13;;;;;;;2.63;1.90;;;17.90;63.70;;;;;;5037955;28;20695;-67
2022/11/11 10:20:41;;;;;;;2.50;2.15;;;17.90;63.70;;;;;;5037075;28;20262;-67
2022/11/11 10:23:13;;;;;;;1.90;1.80;;;18.00;63.70;;;;;;5055066;28;20687;-67
2022/11/11 10:25:42;;;;;;;2.58;1.90;;;17.90;63.60;;;;;;5054732;28;20245;-66
2022/11/11 10:28:08;;;;;;;2.15;1.95;;;17.90;63.60;;;;;;5053390;28;20215;-67
2022/11/11 10:30:34;;;;;;;2.28;1.75;;;17.90;63.60;;;;;;5037197;28;20266;-66
2022/11/11 10:33:08;;;;;;;2.10;2.00;;;17.80;63.60;;;;;;5054999;28;20303;-67
2022/11/11 10:35:36;;;;;;;1.92;1.83;;;17.80;63.70;;;;;;5037260;28;20175;-67
2022/11/11 10:38:08;;;;;;;2.40;2.13;;;17.80;63.80;;;;;;5037569;28;20198;-67
2022/11/11 10:40:45;;;;;;;1.85;1.75;;;17.90;64.00;;;;;;5053608;28;20309;-67
2022/11/11 10:43:22;;;;;;;2.03;1.92;;;17.90;63.90;;;;;;5037643;28;20175;-67
2022/11/11 10:45:58;;;;;;;2.33;1.98;;;18.00;63.90;;;;;;5054469;28;20187;-66
2022/11/11 10:48:31;;;;;;;2.63;2.00;;;17.90;63.80;;;;;;5053062;28;20179;-67
2022/11/11 10:50:57;;;;;;;2.05;1.90;;;17.90;63.70;;;;;;5053609;28;20175;-66
2022/11/11 10:53:53;;;;;;;2.42;1.92;;;17.90;63.80;;;;;;5053289;28;20219;-67
2022/11/11 10:56:39;;;;;;;1.90;1.70;;;17.90;63.90;;;;;;5047134;28;20183;-66
2022/11/11 10:59:07;;;;;;;2.05;1.88;;;17.90;64.00;;;;;;5053689;28;20217;-66
2022/11/11 11:01:42;;;;;;;1.98;1.88;;;17.80;63.90;;;;;;5054355;28;20179;-67
2022/11/11 11:04:25;;;;;;;2.17;2.00;;;17.90;64.00;;;;;;5036362;28;20254;-67
2022/11/11 11:06:51;;;;;;;2.38;2.00;;;17.80;63.90;;;;;;5036982;28;20167;-67
2022/11/11 11:09:21;;;;;;;2.20;2.00;;;17.80;64.00;;;;;;5052506;28;20586;-67
2022/11/11 11:11:54;;;;;;;3.20;1.80;;;17.80;64.10;;;;;;5052492;28;20231;-67
2022/11/11 11:14:27;;;;;;;2.00;1.70;;;17.70;64.20;;;;;;5036458;28;20171;-67
2022/11/11 11:16:55;;;;;;;1.90;1.80;;;17.70;64.20;;;;;;5053183;28;20179;-67
2022/11/11 11:19:22;;;;;;;1.65;1.55;;;17.70;64.40;;;;;;5036784;28;20201;-67
2022/11/11 11:21:55;;;;;;;2.85;1.85;;;17.70;64.50;;;;;;5035895;28;20183;-67
2022/11/11 11:24:23;;;;;;;2.72;2.03;;;17.70;64.50;;;;;;5053555;28;20221;-66
2022/11/11 11:26:51;;;;;;;2.28;1.88;;;17.70;64.60;;;;;;5053769;28;20228;-66
2022/11/11 11:29:47;;;;;;;1.90;1.80;;;17.70;64.70;;;;;;5053868;28;20649;-66
2022/11/11 11:32:16;;;;;;;2.22;1.73;;;17.80;64.70;;;;;;5052858;28;20210;-66
2022/11/11 11:34:50;;;;;;;2.15;2.00;;;17.80;64.80;;;;;;5053482;28;20175;-69
2022/11/11 11:37:16;;;;;;;1.90;1.77;;;17.80;64.80;;;;;;5053653;28;20180;-67
2022/11/11 11:39:42;;;;;;;1.70;1.60;;;17.80;64.90;;;;;;5053441;28;20198;-67
2022/11/11 11:42:07;;;;;;;2.00;1.80;;;17.70;64.90;;;;;;5053710;28;20533;-67
2022/11/11 11:44:42;;;;;;;2.03;1.50;;;17.70;64.90;;;;;;5052704;28;20195;-67
2022/11/11 11:47:20;;;;;;;1.92;1.73;;;17.70;65.00;;;;;;5035925;28;20171;-66
2022/11/11 11:50:00;;;;;;;2.50;1.92;;;17.70;65.00;;;;;;5052282;28;20183;-67
2022/11/11 11:53:09;;;;;;;2.30;2.08;;;17.70;65.10;;;;;;5051672;28;20199;-67
2022/11/11 11:55:36;;;;;;;3.22;2.15;;;17.60;65.10;;;;;;5046541;28;20209;-66
2022/11/11 11:58:24;;;;;;;2.25;1.98;;;17.60;65.10;;;;;;5052344;28;20186;-67
2022/11/11 12:01:04;;;;;;;2.15;1.73;;;17.60;65.20;;;;;;5051987;28;20243;-67
2022/11/11 12:03:38;;;;;;;4.32;1.90;;;17.60;65.10;;;;;;5051909;28;20193;-67
2022/11/11 12:06:28;;;;;;;1.95;1.65;;;17.60;65.10;;;;;;5051260;28;20634;-67
2022/11/11 12:09:23;;;;;;;2.15;1.83;;;17.70;65.10;;;;;;5052113;28;20189;-67
2022/11/11 12:12:22;;;;;;;2.97;1.90;;;17.60;65.10;;;;;;5043786;28;20230;-67
2022/11/11 12:14:51;;;;;;;2.92;2.08;;;17.70;65.20;;;;;;5052317;28;20674;-67
2022/11/11 12:17:27;;;;;;;1.77;1.67;;;17.60;65.20;;;;;;5051764;28;20178;-67
2022/11/11 12:20:13;;;;;;;2.00;1.80;;;17.60;65.20;;;;;;5051106;28;20179;-67
2022/11/11 12:22:39;;;;;;;2.00;1.80;;;17.60;65.20;;;;;;5036452;28;20587;-66
2022/11/11 12:25:29;;;;;;;1.52;1.42;;;17.70;65.30;;;;;;5052772;28;20179;-66
2022/11/11 12:27:56;;;;;;;1.80;1.70;;;17.60;65.20;;;;;;5050927;28;20176;-66
2022/11/11 12:30:29;;;;;;;1.73;1.60;;;17.60;65.20;;;;;;5051648;28;20262;-66
2022/11/11 12:32:57;;;;;;;1.70;1.60;;;17.60;65.20;;;;;;5036212;28;20224;-67
2022/11/11 12:35:40;;;;;;;2.83;1.70;;;17.60;65.10;;;;;;5052292;28;20171;-67
2022/11/11 12:38:50;;;;;;;1.85;1.75;;;17.60;65.20;;;;;;5052912;28;20182;-67
2022/11/11 12:41:23;;;;;;;1.70;1.60;;;17.60;65.20;;;;;;5051295;28;20261;-67
2022/11/11 12:44:06;;;;;;;2.08;1.80;;;17.60;65.30;;;;;;5035400;28;20179;-67
2022/11/11 12:46:40;;;;;;;2.22;1.90;;;17.50;65.20;;;;;;5036238;28;20225;-67
2022/11/11 12:49:26;;;;;;;1.92;1.60;;;17.50;65.20;;;;;;5050812;28;20183;-67
2022/11/11 12:51:55;;;;;;;2.05;1.70;;;17.50;65.30;;;;;;5052244;28;20568;-66
2022/11/11 12:54:27;;;;;;;1.70;1.60;;;17.50;65.30;;;;;;5052781;28;20171;-66
2022/11/11 12:57:05;;;;;;;2.00;1.80;;;17.50;65.40;;;;;;5050532;28;20183;-66
2022/11/11 12:59:41;;;;;;;1.63;1.52;;;17.60;65.50;;;;;;5051098;28;20210;-67
2022/11/11 13:02:09;;;;;;;1.83;1.65;;;17.50;65.40;;;;;;5035109;28;20245;-67
2022/11/11 13:04:43;;;;;;;1.50;1.40;;;17.50;65.40;;;;;;5052229;28;20182;-67
2022/11/11 13:07:20;;;;;;;2.15;1.63;;;17.50;65.40;;;;;;5051527;28;20203;-67
2022/11/11 13:10:16;;;;;;;1.90;1.80;;;17.50;65.40;;;;;;5050216;28;20186;-67
2022/11/11 13:13:09;;;;;;;1.67;1.58;;;17.50;65.40;;;;;;5052140;28;20222;-67
2022/11/11 13:15:35;;;;;;;1.77;1.40;;;17.50;65.40;;;;;;5051023;28;20241;-67
2022/11/11 13:18:00;;;;;;;1.55;1.45;;;17.50;65.40;;;;;;5051801;28;20204;-67
2022/11/11 13:20:45;;;;;;;1.60;1.50;;;17.50;65.40;;;;;;5034706;28;20199;-67
2022/11/11 13:23:11;;;;;;;1.80;1.70;;;17.50;65.30;;;;;;5050662;28;20213;-68
2022/11/11 13:25:39;;;;;;;1.70;1.60;;;17.50;65.40;;;;;;5034442;28;20707;-66
2022/11/11 13:28:29;;;;;;;1.67;1.58;;;17.50;65.40;;;;;;5034942;28;20241;-66
2022/11/11 13:31:06;;;;;;;2.20;1.52;;;17.50;65.50;;;;;;5048711;28;20261;-67
2022/11/11 13:33:38;;;;;;;2.15;1.60;;;17.50;65.60;;;;;;5050925;28;20214;-67
2022/11/11 13:36:03;;;;;;;1.70;1.38;;;17.40;65.50;;;;;;5051167;28;20175;-67
2022/11/11 13:38:30;;;;;;;1.45;1.35;;;17.50;65.70;;;;;;5052823;28;20175;-67
2022/11/11 13:40:58;;;;;;;2.67;1.58;;;17.40;65.70;;;;;;5054813;28;20171;-67
2022/11/11 13:43:41;;;;;;;1.92;1.83;;;17.40;65.70;;;;;;5038547;28;20179;-67
2022/11/11 13:46:10;;;;;;;1.95;1.52;;;17.40;65.80;;;;;;5038778;28;20633;-66
2022/11/11 13:48:38;;;;;;;1.40;1.30;;;17.40;65.80;;;;;;5038205;28;20203;-67
2022/11/11 13:51:27;;;;;;;1.52;1.42;;;17.50;65.80;;;;;;5053830;28;20641;-67
2022/11/11 13:53:53;;;;;;;1.50;1.40;;;17.40;65.90;;;;;;5055666;28;20302;-67
2022/11/11 13:56:27;;;;;;;1.75;1.65;;;17.40;65.90;;;;;;5054789;28;20183;-66
2022/11/11 13:58:52;;;;;;;1.55;1.45;;;17.40;65.80;;;;;;5037925;28;20179;-67
2022/11/11 14:01:18;;;;;;;1.63;1.42;;;17.40;65.90;;;;;;5054568;28;20308;-67
2022/11/11 14:03:43;;;;;;;1.52;1.42;;;17.40;65.90;;;;;;5055334;28;20262;-67
2022/11/11 14:06:15;;;;;;;1.63;1.38;;;17.40;65.90;;;;;;5054688;28;20179;-67
2022/11/11 14:08:46;;;;;;;1.63;1.50;;;17.40;66.00;;;;;;5055272;28;20194;-67
2022/11/11 14:11:33;;;;;;;1.40;1.30;;;17.40;66.30;;;;;;5055190;28;20704;-67
2022/11/11 14:14:30;;;;;;;1.45;1.35;;;17.40;66.10;;;;;;5054612;28;20195;-67
2022/11/11 14:16:59;;;;;;;1.42;1.38;;;17.30;66.10;;;;;;5055274;28;20171;-67
2022/11/11 14:19:24;;;;;;;1.50;1.40;;;17.30;66.10;;;;;;5037128;28;20190;-67
2022/11/11 14:21:57;;;;;;;1.95;1.20;;;17.30;66.30;;;;;;5055107;28;20515;-67